Time;durP1;ratioP1;P1;durP2;ratioP2;P2;SDS_P1;SDS_P2;PMS_P1;PMS_P2;Temp;Humidity;BMP_temperature;BMP_pressure;BME280_temperature;BME280_humidity;BME280_pressure;Samples;Min_cycle;Max_cycle;Signal;HPM_P1;HPM_P2
2021/01/15 00:00:58;;;;;;;12.25;5.93;;;1.40;99.90;;;;;;4946645;28;20138;-73
2021/01/15 00:03:24;;;;;;;16.85;6.57;;;1.40;99.90;;;;;;4948387;28;20027;-73
2021/01/15 00:05:50;;;;;;;15.32;6.50;;;1.40;99.90;;;;;;4946850;28;20031;-73
2021/01/15 00:08:16;;;;;;;10.57;5.95;;;1.40;99.90;;;;;;4964264;28;20050;-73
2021/01/15 00:10:43;;;;;;;12.73;6.07;;;1.40;99.90;;;;;;4949133;28;20089;-73
2021/01/15 00:13:08;;;;;;;18.10;7.70;;;1.40;99.90;;;;;;4951287;28;20030;-73
2021/01/15 00:15:34;;;;;;;14.95;6.53;;;1.40;99.90;;;;;;4948508;28;20066;-73
2021/01/15 00:18:00;;;;;;;14.32;5.97;;;1.50;99.90;;;;;;4952754;28;20039;-73
2021/01/15 00:20:26;;;;;;;14.07;6.40;;;1.50;99.90;;;;;;4949013;28;20516;-73
2021/01/15 00:22:52;;;;;;;12.52;6.25;;;1.50;99.90;;;;;;4951769;28;20035;-73
2021/01/15 00:25:17;;;;;;;13.13;6.80;;;1.50;99.90;;;;;;4947755;28;20031;-73
2021/01/15 00:27:43;;;;;;;13.70;6.40;;;1.40;99.90;;;;;;4953487;28;20143;-73
2021/01/15 00:30:10;;;;;;;13.07;7.00;;;1.50;99.90;;;;;;4952746;28;20112;-73
2021/01/15 00:32:37;;;;;;;11.82;6.07;;;1.40;99.90;;;;;;4955768;28;20027;-73
2021/01/15 00:35:07;;;;;;;12.07;6.13;;;1.50;99.90;;;;;;4956174;28;20373;-73
2021/01/15 00:37:34;;;;;;;12.55;6.50;;;1.40;99.90;;;;;;4954773;28;20060;-74
2021/01/15 00:40:00;;;;;;;12.40;5.93;;;1.40;99.90;;;;;;4951245;28;20755;-73
2021/01/15 00:42:26;;;;;;;14.13;6.53;;;1.40;99.90;;;;;;4949759;28;20031;-73
2021/01/15 00:44:55;;;;;;;12.57;6.55;;;1.30;99.90;;;;;;4952072;28;20041;-73
2021/01/15 00:47:22;;;;;;;12.98;6.40;;;1.30;99.90;;;;;;4964637;28;20031;-73
2021/01/15 00:49:48;;;;;;;13.13;7.40;;;1.30;99.90;;;;;;4961573;28;20038;-73
2021/01/15 00:52:18;;;;;;;11.43;6.13;;;1.30;99.90;;;;;;4961848;28;20035;-73
2021/01/15 00:54:44;;;;;;;14.30;6.80;;;1.20;99.90;;;;;;4962182;28;20042;-73
2021/01/15 00:57:09;;;;;;;12.65;6.43;;;1.20;99.90;;;;;;4954240;28;20059;-73
2021/01/15 00:59:35;;;;;;;13.98;6.68;;;1.20;99.90;;;;;;4963176;28;20101;-73
2021/01/15 01:02:23;;;;;;;13.13;6.80;;;1.20;99.90;;;;;;4963010;28;20567;-73
2021/01/15 01:04:51;;;;;;;13.65;6.72;;;1.20;99.90;;;;;;4965927;28;20035;-73
2021/01/15 01:07:17;;;;;;;13.07;6.97;;;1.20;99.90;;;;;;4950420;28;20116;-73
2021/01/15 01:09:43;;;;;;;13.73;7.03;;;1.10;99.90;;;;;;4949544;28;20138;-73
2021/01/15 01:12:08;;;;;;;15.90;7.88;;;1.10;99.90;;;;;;4951895;28;20384;-73
2021/01/15 01:14:34;;;;;;;13.23;7.22;;;1.10;99.90;;;;;;4947989;28;20127;-73
2021/01/15 01:17:02;;;;;;;13.00;7.05;;;1.20;99.90;;;;;;4949780;28;20043;-73
2021/01/15 01:19:28;;;;;;;13.10;6.47;;;1.20;99.90;;;;;;4949208;28;20077;-73
2021/01/15 01:21:54;;;;;;;15.20;7.28;;;1.20;99.90;;;;;;4966456;28;20774;-73
2021/01/15 01:24:19;;;;;;;15.93;7.63;;;1.20;99.90;;;;;;4949926;28;20450;-73
2021/01/15 01:26:45;;;;;;;13.50;6.70;;;1.20;99.90;;;;;;4949591;28;20577;-73
2021/01/15 01:29:11;;;;;;;15.63;6.53;;;1.10;99.90;;;;;;4951151;28;20476;-73
2021/01/15 01:31:36;;;;;;;15.32;7.57;;;1.10;99.90;;;;;;4955356;28;20126;-73
2021/01/15 01:34:02;;;;;;;14.38;7.20;;;1.10;99.90;;;;;;4951935;28;20088;-73
2021/01/15 01:36:28;;;;;;;16.98;7.30;;;1.10;99.90;;;;;;4946073;28;20047;-73
2021/01/15 01:38:53;;;;;;;12.43;6.75;;;1.10;99.90;;;;;;4951153;28;20031;-73
2021/01/15 01:41:19;;;;;;;12.38;6.55;;;1.10;99.90;;;;;;4954841;28;20176;-73
2021/01/15 01:43:45;;;;;;;16.20;7.72;;;1.10;99.90;;;;;;4965236;28;20415;-73
2021/01/15 01:46:10;;;;;;;18.55;7.60;;;1.10;99.90;;;;;;4947839;28;20034;-73
2021/01/15 01:48:37;;;;;;;13.18;7.07;;;1.20;99.90;;;;;;4947396;28;20885;-73
2021/01/15 01:51:04;;;;;;;14.98;7.78;;;1.20;99.90;;;;;;4951963;28;20034;-73
2021/01/15 01:53:31;;;;;;;16.67;7.57;;;1.20;99.90;;;;;;4944590;28;20026;-73
2021/01/15 01:55:58;;;;;;;19.17;7.18;;;1.20;99.90;;;;;;4950009;28;20776;-73
2021/01/15 01:58:26;;;;;;;15.55;7.20;;;1.20;99.90;;;;;;4947597;28;20031;-73
2021/01/15 02:00:58;;;;;;;16.05;8.65;;;1.10;99.90;;;;;;4960206;28;20035;-73
2021/01/15 02:03:24;;;;;;;13.32;7.20;;;1.10;99.90;;;;;;4949530;28;20036;-73
2021/01/15 02:05:49;;;;;;;19.40;7.93;;;1.10;99.90;;;;;;4949765;28;20038;-73
2021/01/15 02:08:15;;;;;;;18.60;7.90;;;1.20;99.90;;;;;;4949138;28;20534;-73
2021/01/15 02:10:48;;;;;;;13.85;6.90;;;1.20;99.90;;;;;;4965382;28;20042;-73
2021/01/15 02:13:38;;;;;;;16.27;7.25;;;1.20;99.90;;;;;;4949367;28;20066;-73
2021/01/15 02:16:11;;;;;;;16.30;7.60;;;1.20;99.90;;;;;;4954069;28;20804;-73
2021/01/15 02:18:54;;;;;;;13.02;6.95;;;1.20;99.90;;;;;;4950033;28;20054;-73
2021/01/15 02:21:52;;;;;;;15.50;7.10;;;1.30;99.90;;;;;;4951751;28;20050;-73
2021/01/15 02:24:34;;;;;;;19.90;6.95;;;1.20;99.90;;;;;;4953833;28;20034;-73
2021/01/15 02:27:19;;;;;;;16.38;7.45;;;1.20;99.90;;;;;;4953354;28;20547;-73
2021/01/15 02:30:14;;;;;;;18.75;7.65;;;1.20;99.90;;;;;;4952040;28;20121;-73
2021/01/15 02:32:49;;;;;;;12.80;6.40;;;1.30;99.90;;;;;;4954167;28;20042;-73
2021/01/15 02:35:23;;;;;;;10.02;4.93;;;1.20;99.90;;;;;;4952708;28;20078;-73
2021/01/15 02:38:07;;;;;;;13.57;6.43;;;1.20;99.90;;;;;;4947948;28;20063;-73
2021/01/15 02:40:42;;;;;;;17.85;8.00;;;1.20;99.90;;;;;;4949875;28;20064;-74
2021/01/15 02:43:08;;;;;;;15.48;7.20;;;1.20;99.90;;;;;;4951461;28;20041;-74
2021/01/15 02:45:35;;;;;;;21.70;7.78;;;1.20;99.90;;;;;;4969074;28;20516;-75
2021/01/15 02:48:04;;;;;;;16.90;7.22;;;1.30;99.90;;;;;;4961483;28;20085;-74
2021/01/15 02:50:31;;;;;;;13.48;7.35;;;1.20;99.90;;;;;;4951821;28;20041;-76
2021/01/15 02:52:59;;;;;;;16.92;9.02;;;1.20;99.90;;;;;;4953036;28;20035;-75
2021/01/15 02:55:25;;;;;;;19.52;8.25;;;1.20;99.90;;;;;;4950998;28;20039;-74
2021/01/15 02:57:51;;;;;;;17.00;7.63;;;1.10;99.90;;;;;;4947781;28;20046;-74
2021/01/15 03:00:22;;;;;;;16.35;8.05;;;1.10;99.90;;;;;;4949172;28;20559;-74
2021/01/15 03:02:51;;;;;;;18.70;8.40;;;1.10;99.90;;;;;;4963752;28;20035;-73
2021/01/15 03:05:20;;;;;;;16.92;8.38;;;1.00;99.90;;;;;;4949565;28;20799;-74
2021/01/15 03:07:49;;;;;;;17.00;8.32;;;1.00;99.90;;;;;;4963912;28;20047;-74
2021/01/15 03:10:19;;;;;;;20.88;8.63;;;1.00;99.90;;;;;;4952704;28;20454;-74
2021/01/15 03:12:46;;;;;;;19.67;9.05;;;1.10;99.90;;;;;;4950548;28;20470;-74
2021/01/15 03:15:14;;;;;;;18.70;8.55;;;1.00;99.90;;;;;;4967510;28;20077;-74
2021/01/15 03:17:44;;;;;;;16.45;8.20;;;1.10;99.90;;;;;;4950641;28;20843;-74
2021/01/15 03:20:10;;;;;;;17.38;8.50;;;1.00;99.90;;;;;;4953572;28;20117;-74
2021/01/15 03:22:38;;;;;;;16.85;8.25;;;1.10;99.90;;;;;;4950890;28;20149;-74
2021/01/15 03:25:05;;;;;;;15.10;7.82;;;1.10;99.90;;;;;;4968313;28;20031;-74
2021/01/15 03:27:48;;;;;;;17.20;8.57;;;1.20;99.90;;;;;;4950930;28;20043;-73
2021/01/15 03:30:25;;;;;;;19.67;8.98;;;1.10;99.90;;;;;;4952132;28;20041;-74
2021/01/15 03:32:53;;;;;;;19.55;8.80;;;1.10;99.90;;;;;;4956343;28;20852;-74
2021/01/15 03:35:22;;;;;;;20.67;9.32;;;1.10;99.90;;;;;;4951527;28;20034;-74
2021/01/15 03:38:10;;;;;;;20.65;10.77;;;1.10;99.90;;;;;;4953703;28;20034;-74
2021/01/15 03:40:43;;;;;;;17.30;8.25;;;1.10;99.90;;;;;;4966591;28;20032;-74
2021/01/15 03:43:15;;;;;;;14.82;7.78;;;1.20;99.90;;;;;;4955482;28;20031;-74
2021/01/15 03:45:42;;;;;;;17.60;8.65;;;1.20;99.90;;;;;;4965047;28;20042;-74
2021/01/15 03:48:08;;;;;;;18.70;9.60;;;1.10;99.90;;;;;;4948749;28;20115;-74
2021/01/15 03:50:34;;;;;;;19.00;9.35;;;1.20;99.90;;;;;;4949626;28;20039;-74
2021/01/15 03:53:00;;;;;;;20.25;8.88;;;1.30;99.90;;;;;;4953059;28;20031;-74
2021/01/15 03:55:26;;;;;;;18.67;9.20;;;1.20;99.90;;;;;;4950431;28;20122;-74
2021/01/15 03:57:51;;;;;;;15.07;8.02;;;1.20;99.90;;;;;;4952727;28;20174;-74
2021/01/15 04:00:17;;;;;;;16.63;8.43;;;1.10;99.90;;;;;;4961480;28;20077;-73
2021/01/15 04:02:43;;;;;;;18.75;8.52;;;1.10;99.90;;;;;;4948264;28;20035;-74
2021/01/15 04:05:10;;;;;;;17.17;7.90;;;1.00;99.90;;;;;;4962308;28;20625;-74
2021/01/15 04:07:36;;;;;;;18.13;8.45;;;1.00;99.90;;;;;;4948996;28;20064;-74
2021/01/15 04:10:02;;;;;;;23.23;9.05;;;1.10;99.90;;;;;;4946685;28;20043;-74
2021/01/15 04:12:31;;;;;;;19.73;8.75;;;1.00;99.90;;;;;;4949387;28;20049;-74
2021/01/15 04:14:57;;;;;;;15.80;8.43;;;1.00;99.90;;;;;;4951378;28;20357;-74
2021/01/15 04:17:23;;;;;;;18.85;8.48;;;1.00;99.90;;;;;;4951603;28;20503;-74
2021/01/15 04:19:48;;;;;;;18.83;8.73;;;0.90;99.90;;;;;;4952998;28;20427;-74
2021/01/15 04:22:14;;;;;;;19.52;9.10;;;0.90;99.90;;;;;;4952262;28;20029;-74
2021/01/15 04:24:40;;;;;;;14.75;7.85;;;0.80;99.90;;;;;;4949955;28;20077;-74
2021/01/15 04:27:06;;;;;;;15.95;8.25;;;0.80;99.90;;;;;;4953712;28;20057;-74
2021/01/15 04:29:32;;;;;;;17.20;7.93;;;0.70;99.90;;;;;;4951851;28;20030;-73
2021/01/15 04:31:58;;;;;;;17.70;8.65;;;0.70;99.90;;;;;;4945472;28;20762;-74
2021/01/15 04:34:23;;;;;;;16.65;8.45;;;0.70;99.90;;;;;;4949352;28;20035;-74
2021/01/15 04:36:49;;;;;;;19.58;7.95;;;0.70;99.90;;;;;;4947886;28;20038;-73
2021/01/15 04:39:16;;;;;;;19.23;9.05;;;0.60;99.90;;;;;;4951669;28;20039;-74
2021/01/15 04:41:43;;;;;;;16.80;8.18;;;0.70;99.90;;;;;;4951028;28;20067;-74
2021/01/15 04:44:10;;;;;;;20.35;9.20;;;0.60;99.90;;;;;;4952503;28;20039;-74
2021/01/15 04:46:39;;;;;;;17.33;7.95;;;0.60;99.90;;;;;;4948588;28;20039;-74
2021/01/15 04:49:08;;;;;;;16.17;8.35;;;0.60;99.90;;;;;;4953447;28;20034;-74
2021/01/15 04:51:36;;;;;;;16.10;8.05;;;0.70;99.90;;;;;;4962640;28;20711;-74
2021/01/15 04:54:06;;;;;;;17.02;8.68;;;0.70;99.90;;;;;;4961604;28;20078;-74
2021/01/15 04:56:54;;;;;;;16.80;9.02;;;0.80;99.90;;;;;;4954806;28;20034;-74
2021/01/15 04:59:21;;;;;;;19.77;8.75;;;0.80;99.90;;;;;;4950183;28;20034;-74
2021/01/15 05:01:48;;;;;;;17.27;8.52;;;0.80;99.90;;;;;;4962050;28;20045;-72
2021/01/15 05:04:19;;;;;;;17.23;8.38;;;0.70;99.90;;;;;;4947895;28;20027;-74
2021/01/15 05:06:51;;;;;;;15.32;7.75;;;0.70;99.90;;;;;;4962258;28;20684;-74
2021/01/15 05:09:20;;;;;;;20.17;8.18;;;0.70;99.90;;;;;;4948138;28;20031;-74
2021/01/15 05:11:47;;;;;;;16.15;8.02;;;0.70;99.90;;;;;;4947546;28;20877;-74
2021/01/15 05:14:14;;;;;;;19.90;8.07;;;0.80;99.90;;;;;;4965030;28;20050;-73
2021/01/15 05:16:45;;;;;;;17.88;7.90;;;0.80;99.90;;;;;;4950569;28;20058;-73
2021/01/15 05:19:13;;;;;;;20.05;8.63;;;0.80;99.90;;;;;;4967032;28;20042;-74
2021/01/15 05:21:41;;;;;;;15.02;7.05;;;0.80;99.90;;;;;;4948667;28;20035;-74
2021/01/15 05:24:09;;;;;;;14.82;7.32;;;0.80;99.90;;;;;;4951985;28;20070;-74
2021/01/15 05:26:35;;;;;;;16.27;7.40;;;0.80;99.90;;;;;;4949724;28;20046;-74
2021/01/15 05:29:02;;;;;;;19.13;7.80;;;0.80;99.90;;;;;;4951978;28;20783;-74
2021/01/15 05:31:45;;;;;;;13.88;6.97;;;0.80;99.90;;;;;;4964217;28;20625;-74
2021/01/15 05:34:11;;;;;;;15.07;7.15;;;0.70;99.90;;;;;;4952112;28;20165;-74
2021/01/15 05:36:36;;;;;;;21.40;8.05;;;0.70;99.90;;;;;;4954303;28;20048;-74
2021/01/15 05:39:07;;;;;;;16.15;7.80;;;0.70;99.90;;;;;;4952322;28;20127;-74
2021/01/15 05:41:33;;;;;;;20.33;8.73;;;0.70;99.90;;;;;;4950979;28;20506;-74
2021/01/15 05:44:00;;;;;;;17.02;8.40;;;0.70;99.90;;;;;;4945477;28;20039;-73
2021/01/15 05:46:26;;;;;;;15.27;7.57;;;0.80;99.90;;;;;;4966090;28;20149;-74
2021/01/15 05:48:53;;;;;;;16.40;8.25;;;0.80;99.90;;;;;;4951061;28;20035;-73
2021/01/15 05:51:25;;;;;;;15.45;7.63;;;0.80;99.90;;;;;;4949767;28;20082;-73
2021/01/15 05:53:51;;;;;;;14.85;8.07;;;0.90;99.90;;;;;;4951940;28;20038;-73
2021/01/15 05:56:19;;;;;;;17.02;8.02;;;0.90;99.90;;;;;;4949504;28;20042;-74
2021/01/15 05:59:03;;;;;;;15.48;7.43;;;0.90;99.90;;;;;;4951430;28;20031;-74
2021/01/15 06:01:41;;;;;;;16.30;7.93;;;0.80;99.90;;;;;;4964235;28;20031;-74
2021/01/15 06:04:08;;;;;;;18.42;8.77;;;0.90;99.90;;;;;;4952494;28;20050;-74
2021/01/15 06:06:35;;;;;;;15.43;7.55;;;1.00;99.90;;;;;;4949491;28;20046;-74
2021/01/15 06:09:12;;;;;;;19.48;8.73;;;0.90;99.90;;;;;;4952943;28;20031;-74
2021/01/15 06:11:41;;;;;;;15.55;8.23;;;0.90;99.90;;;;;;4947989;28;20793;-74
2021/01/15 06:14:29;;;;;;;19.70;8.63;;;0.90;99.90;;;;;;4956928;28;20038;-74
2021/01/15 06:17:00;;;;;;;19.90;8.40;;;0.90;99.90;;;;;;4948925;28;20093;-74
2021/01/15 06:19:44;;;;;;;16.05;8.10;;;0.90;99.90;;;;;;4957129;28;20041;-73
2021/01/15 06:22:46;;;;;;;17.50;8.55;;;0.90;99.90;;;;;;4955106;28;20110;-73
2021/01/15 06:25:32;;;;;;;17.55;8.68;;;0.90;99.90;;;;;;4951108;28;20089;-73
2021/01/15 06:28:03;;;;;;;17.40;8.20;;;0.80;99.90;;;;;;4950982;28;20570;-73
2021/01/15 06:30:31;;;;;;;20.30;9.18;;;0.80;99.90;;;;;;4952449;28;20081;-73
2021/01/15 06:33:11;;;;;;;19.02;8.75;;;0.90;99.90;;;;;;4949384;28;20613;-74
2021/01/15 06:35:39;;;;;;;20.77;8.52;;;0.90;99.90;;;;;;4948830;28;20031;-74
2021/01/15 06:38:09;;;;;;;15.18;8.85;;;0.90;99.90;;;;;;4958016;28;20039;-74
2021/01/15 06:40:36;;;;;;;16.95;8.70;;;0.90;99.90;;;;;;4964728;28;20071;-74
2021/01/15 06:43:07;;;;;;;18.65;8.82;;;0.90;99.90;;;;;;4951469;28;20033;-74
2021/01/15 06:45:44;;;;;;;19.13;8.88;;;0.90;99.90;;;;;;4951664;28;20697;-74
2021/01/15 06:48:13;;;;;;;18.27;8.68;;;0.90;99.90;;;;;;4970346;28;20174;-74
2021/01/15 06:50:43;;;;;;;16.02;8.43;;;0.90;99.90;;;;;;4953382;28;20051;-74
2021/01/15 06:53:19;;;;;;;18.27;9.82;;;0.80;99.90;;;;;;4962392;28;20027;-75
2021/01/15 06:55:48;;;;;;;16.73;9.00;;;0.80;99.90;;;;;;4952931;28;20766;-73
2021/01/15 06:58:37;;;;;;;17.95;9.65;;;0.70;99.90;;;;;;4955261;28;20133;-74
2021/01/15 07:01:12;;;;;;;19.08;9.43;;;0.70;99.90;;;;;;4956760;28;20135;-74
2021/01/15 07:03:57;;;;;;;17.73;8.73;;;0.90;99.90;;;;;;4955394;28;20384;-74
2021/01/15 07:06:26;;;;;;;21.27;9.23;;;0.90;99.90;;;;;;4951121;28;20118;-73
2021/01/15 07:08:54;;;;;;;17.63;9.13;;;0.80;99.90;;;;;;4955530;28;20035;-74
2021/01/15 07:11:23;;;;;;;15.77;8.95;;;0.80;99.90;;;;;;4958409;28;20046;-73
2021/01/15 07:13:54;;;;;;;18.48;9.68;;;0.70;99.90;;;;;;4960678;28;20070;-74
2021/01/15 07:16:39;;;;;;;21.33;9.88;;;0.70;99.90;;;;;;4951777;28;20125;-73
2021/01/15 07:19:05;;;;;;;16.55;9.25;;;0.70;99.90;;;;;;4966612;28;20026;-73
2021/01/15 07:21:36;;;;;;;20.08;10.23;;;0.80;99.90;;;;;;4948951;28;20876;-74
2021/01/15 07:24:09;;;;;;;17.60;9.68;;;0.70;99.90;;;;;;4952976;28;20023;-73
2021/01/15 07:26:39;;;;;;;18.77;9.60;;;0.70;99.90;;;;;;4950387;28;20082;-73
2021/01/15 07:29:10;;;;;;;17.65;9.13;;;0.70;99.90;;;;;;4952666;28;20035;-73
2021/01/15 07:31:50;;;;;;;21.45;10.32;;;0.70;99.90;;;;;;4950270;28;20043;-73
2021/01/15 07:34:17;;;;;;;18.83;9.18;;;0.70;99.90;;;;;;4957065;28;20039;-73
2021/01/15 07:36:43;;;;;;;19.52;9.43;;;0.70;99.90;;;;;;4956001;28;20050;-74
2021/01/15 07:39:16;;;;;;;17.20;8.77;;;0.70;99.90;;;;;;4956477;28;20039;-73
2021/01/15 07:41:49;;;;;;;21.67;9.57;;;0.70;99.90;;;;;;4951760;28;20175;-73
2021/01/15 07:44:21;;;;;;;19.08;9.52;;;0.70;99.90;;;;;;4961562;28;20026;-73
2021/01/15 07:46:48;;;;;;;19.38;9.88;;;0.80;99.90;;;;;;4955483;28;20042;-74
2021/01/15 07:49:14;;;;;;;19.63;10.15;;;0.80;99.90;;;;;;4956457;28;20105;-74
2021/01/15 07:51:40;;;;;;;19.55;9.95;;;0.80;99.90;;;;;;4958139;28;20043;-73
2021/01/15 07:54:05;;;;;;;18.25;9.73;;;0.80;99.90;;;;;;4955382;28;20062;-74
2021/01/15 07:56:31;;;;;;;20.05;10.32;;;0.80;99.90;;;;;;4954485;28;20066;-73
2021/01/15 07:58:57;;;;;;;19.60;9.85;;;0.90;99.90;;;;;;4955095;28;20050;-74
2021/01/15 08:01:23;;;;;;;22.77;11.30;;;0.90;99.90;;;;;;4958825;28;20042;-73
2021/01/15 08:03:54;;;;;;;21.05;10.27;;;0.90;99.90;;;;;;4953357;28;20097;-73
2021/01/15 08:06:21;;;;;;;18.23;9.25;;;0.90;99.90;;;;;;4957386;28;20043;-74
2021/01/15 08:09:03;;;;;;;21.08;10.80;;;0.90;99.90;;;;;;4951475;28;20035;-73
2021/01/15 08:11:30;;;;;;;20.95;9.93;;;0.80;99.90;;;;;;4953265;28;20037;-75
2021/01/15 08:14:23;;;;;;;17.80;9.10;;;1.00;99.90;;;;;;4955035;28;20047;-74
2021/01/15 08:16:50;;;;;;;19.60;9.75;;;0.90;99.90;;;;;;4954750;28;20117;-73
2021/01/15 08:19:17;;;;;;;18.98;9.68;;;0.90;99.90;;;;;;4956582;28;20146;-75
2021/01/15 08:21:45;;;;;;;17.27;8.93;;;0.90;99.90;;;;;;4954756;28;20035;-74
2021/01/15 08:24:11;;;;;;;27.05;13.38;;;0.90;99.90;;;;;;4953474;28;20451;-75
2021/01/15 08:26:38;;;;;;;21.60;10.00;;;1.00;99.90;;;;;;4957766;28;20039;-74
2021/01/15 08:29:04;;;;;;;17.67;8.38;;;0.90;99.90;;;;;;4948325;28;20126;-73
2021/01/15 08:31:30;;;;;;;14.63;8.15;;;1.00;99.90;;;;;;4953743;28;20045;-73
2021/01/15 08:34:06;;;;;;;17.95;9.02;;;1.00;99.90;;;;;;4951231;28;20035;-74
2021/01/15 08:36:33;;;;;;;13.60;8.05;;;1.00;99.90;;;;;;4948680;28;20034;-74
2021/01/15 08:38:59;;;;;;;19.90;9.23;;;0.90;99.90;;;;;;4954962;28;20045;-74
2021/01/15 08:41:26;;;;;;;30.15;12.15;;;0.90;99.90;;;;;;4957023;28;20223;-72
2021/01/15 08:43:53;;;;;;;15.57;7.75;;;0.80;99.90;;;;;;4953609;28;20027;-73
2021/01/15 08:46:21;;;;;;;12.52;7.68;;;0.70;99.90;;;;;;4949938;28;20039;-73
2021/01/15 08:48:47;;;;;;;13.35;7.13;;;0.80;99.90;;;;;;4950509;28;20031;-73
2021/01/15 08:51:20;;;;;;;12.43;7.32;;;0.80;99.90;;;;;;4955530;28;20930;-73
2021/01/15 08:54:06;;;;;;;14.18;7.20;;;0.80;99.90;;;;;;4954462;28;20494;-74
2021/01/15 08:56:42;;;;;;;13.60;7.28;;;0.80;99.90;;;;;;4952796;28;20045;-73
2021/01/15 08:59:12;;;;;;;15.63;7.88;;;0.80;99.90;;;;;;4952437;28;20034;-73
2021/01/15 09:01:42;;;;;;;14.80;8.02;;;0.80;99.90;;;;;;4950842;28;20114;-73
2021/01/15 09:04:13;;;;;;;15.65;8.90;;;0.80;99.90;;;;;;4947488;28;20062;-73
2021/01/15 09:06:40;;;;;;;16.17;8.55;;;0.70;99.90;;;;;;4949986;28;20043;-73
2021/01/15 09:09:08;;;;;;;16.38;8.45;;;0.50;99.90;;;;;;4953908;28;20070;-73
2021/01/15 09:11:36;;;;;;;17.98;8.95;;;0.60;99.90;;;;;;4951303;28;20116;-73
2021/01/15 09:14:03;;;;;;;15.18;9.07;;;0.60;99.90;;;;;;4958165;28;20093;-74
2021/01/15 09:16:29;;;;;;;17.00;8.98;;;0.70;99.90;;;;;;4954571;28;20027;-74
2021/01/15 09:19:03;;;;;;;16.98;9.02;;;0.70;99.90;;;;;;4952876;28;20035;-74
2021/01/15 09:21:28;;;;;;;21.10;7.95;;;0.70;99.90;;;;;;4955828;28;20574;-72
2021/01/15 09:23:54;;;;;;;15.63;8.10;;;0.70;99.90;;;;;;4958421;28;20117;-72
2021/01/15 09:26:19;;;;;;;15.18;8.32;;;0.60;99.90;;;;;;4952151;28;20034;-72
2021/01/15 09:28:45;;;;;;;15.40;8.07;;;0.60;99.90;;;;;;4950040;28;20059;-72
2021/01/15 09:31:11;;;;;;;16.35;8.82;;;0.70;99.90;;;;;;4953471;28;20038;-74
2021/01/15 09:33:46;;;;;;;15.10;8.07;;;0.60;99.90;;;;;;4950436;28;20778;-74
2021/01/15 09:36:26;;;;;;;14.60;7.93;;;0.70;99.90;;;;;;4957723;28;20046;-74
2021/01/15 09:38:54;;;;;;;17.63;8.50;;;0.70;99.90;;;;;;4969038;28;20448;-73
2021/01/15 09:41:19;;;;;;;14.55;7.38;;;0.70;99.90;;;;;;4956665;28;20503;-73
2021/01/15 09:43:46;;;;;;;16.10;7.88;;;0.70;99.90;;;;;;4949513;28;20032;-74
2021/01/15 09:46:23;;;;;;;19.02;8.50;;;0.70;99.90;;;;;;4954839;28;20030;-70
2021/01/15 09:48:50;;;;;;;13.48;7.50;;;0.80;99.90;;;;;;4947657;28;20214;-73
2021/01/15 09:51:19;;;;;;;13.27;7.35;;;0.70;99.90;;;;;;4947150;28;20607;-73
2021/01/15 09:53:44;;;;;;;16.02;7.93;;;0.60;99.90;;;;;;4947209;28;20049;-74
2021/01/15 09:56:19;;;;;;;15.98;8.27;;;0.60;99.90;;;;;;4946728;28;20035;-73
2021/01/15 09:58:45;;;;;;;16.50;8.73;;;0.70;99.90;;;;;;4950005;28;20042;-69
2021/01/15 10:01:10;;;;;;;19.75;10.10;;;0.60;99.90;;;;;;4951501;28;20039;-75
2021/01/15 10:03:36;;;;;;;28.02;12.85;;;0.60;99.90;;;;;;4949210;28;20031;-73
2021/01/15 10:06:02;;;;;;;44.65;19.20;;;0.50;99.90;;;;;;4965656;28;20077;-73
2021/01/15 10:08:27;;;;;;;18.10;8.35;;;0.60;99.90;;;;;;4963457;28;20046;-73
2021/01/15 10:10:53;;;;;;;24.65;12.82;;;0.60;99.90;;;;;;4951532;28;20078;-72
2021/01/15 10:13:19;;;;;;;13.77;7.53;;;0.60;99.90;;;;;;4960542;28;20130;-74
2021/01/15 10:15:44;;;;;;;38.13;18.02;;;0.60;99.90;;;;;;4953456;28;20074;-72
2021/01/15 10:18:10;;;;;;;21.05;10.55;;;0.50;99.90;;;;;;4949147;28;20676;-73
2021/01/15 10:20:36;;;;;;;33.33;15.73;;;0.60;99.90;;;;;;4949221;28;20023;-74
2021/01/15 10:23:01;;;;;;;15.55;7.65;;;0.60;99.90;;;;;;4954915;28;20034;-72
2021/01/15 10:25:27;;;;;;;57.58;26.05;;;0.70;99.90;;;;;;4959458;28;20464;-74
2021/01/15 10:27:53;;;;;;;36.28;17.33;;;0.60;99.90;;;;;;4949764;28;20035;-74
2021/01/15 10:30:19;;;;;;;15.30;8.30;;;0.60;99.90;;;;;;4950108;28;20062;-74
2021/01/15 10:32:48;;;;;;;13.10;6.55;;;0.50;99.90;;;;;;4954318;28;20414;-73
2021/01/15 10:35:14;;;;;;;12.13;6.72;;;0.60;99.90;;;;;;4967326;28;20082;-74
2021/01/15 10:37:40;;;;;;;13.20;7.72;;;0.60;99.90;;;;;;4957914;28;20050;-75
2021/01/15 10:40:07;;;;;;;14.82;7.80;;;0.70;99.90;;;;;;4959102;28;20039;-74
2021/01/15 10:42:42;;;;;;;16.67;8.73;;;0.50;99.90;;;;;;4953133;28;20046;-74
2021/01/15 10:45:08;;;;;;;15.18;8.57;;;0.70;99.90;;;;;;4954446;28;20495;-75
2021/01/15 10:47:39;;;;;;;14.77;7.60;;;0.90;99.90;;;;;;4955050;28;20027;-75
2021/01/15 10:50:05;;;;;;;14.25;7.78;;;0.80;99.90;;;;;;4958162;28;20489;-75
2021/01/15 10:52:31;;;;;;;12.70;6.10;;;0.80;99.90;;;;;;4954135;28;20031;-75
2021/01/15 10:54:58;;;;;;;13.15;6.75;;;0.80;99.90;;;;;;4948307;28;20043;-75
2021/01/15 10:57:24;;;;;;;11.60;6.20;;;0.80;99.90;;;;;;4950671;28;20683;-75
2021/01/15 10:59:49;;;;;;;13.52;6.30;;;0.80;99.90;;;;;;4948538;28;20047;-75
2021/01/15 11:02:15;;;;;;;8.52;5.38;;;0.70;99.90;;;;;;4954558;28;20043;-75
2021/01/15 11:04:40;;;;;;;8.98;5.13;;;0.70;99.90;;;;;;4954798;28;20046;-75
2021/01/15 11:07:06;;;;;;;11.40;6.25;;;0.70;99.90;;;;;;4952445;28;20106;-76
2021/01/15 11:09:32;;;;;;;10.95;6.00;;;0.80;99.90;;;;;;4954249;28;20087;-78
2021/01/15 11:11:59;;;;;;;11.27;5.85;;;0.90;99.90;;;;;;4972493;28;20965;-76
2021/01/15 11:14:25;;;;;;;9.57;5.70;;;0.80;99.90;;;;;;4957259;28;20049;-76
2021/01/15 11:16:51;;;;;;;9.98;5.50;;;0.90;99.90;;;;;;4959458;28;20062;-76
2021/01/15 11:19:17;;;;;;;12.50;6.63;;;0.80;99.90;;;;;;4955964;28;20039;-76
2021/01/15 11:21:43;;;;;;;12.88;6.15;;;0.80;99.90;;;;;;4950632;28;20031;-76
2021/01/15 11:24:10;;;;;;;13.00;7.13;;;1.00;99.90;;;;;;4951402;28;20586;-75
2021/01/15 11:26:36;;;;;;;13.30;6.88;;;1.00;99.90;;;;;;4967402;28;20074;-75
2021/01/15 11:29:05;;;;;;;9.98;5.60;;;0.90;99.90;;;;;;4967990;28;20077;-74
2021/01/15 11:31:30;;;;;;;10.10;5.95;;;1.00;99.90;;;;;;4950323;28;20043;-75
2021/01/15 11:33:57;;;;;;;12.90;6.75;;;1.00;99.90;;;;;;4956555;28;20518;-75
2021/01/15 11:36:23;;;;;;;10.93;5.70;;;0.90;99.90;;;;;;4952926;28;21887;-75
2021/01/15 11:38:52;;;;;;;9.25;5.30;;;0.90;99.90;;;;;;4960702;28;20041;-75
2021/01/15 11:41:18;;;;;;;12.93;7.35;;;0.90;99.90;;;;;;4968611;28;20079;-75
2021/01/15 11:43:44;;;;;;;15.98;10.50;;;0.90;99.90;;;;;;4960718;28;20946;-75
2021/01/15 11:46:11;;;;;;;8.85;6.07;;;1.00;99.90;;;;;;4953951;28;20031;-76
2021/01/15 11:48:38;;;;;;;12.77;6.07;;;1.00;99.90;;;;;;4938349;28;20039;-73
2021/01/15 11:51:04;;;;;;;12.93;6.57;;;0.90;99.90;;;;;;4955745;28;20065;-74
2021/01/15 11:53:34;;;;;;;10.35;5.68;;;0.90;99.90;;;;;;4956633;28;20041;-75
2021/01/15 11:56:02;;;;;;;12.02;7.40;;;0.80;99.90;;;;;;4967142;28;20043;-74
2021/01/15 11:58:28;;;;;;;18.90;10.88;;;0.80;99.90;;;;;;4950585;28;20546;-74
2021/01/15 12:00:55;;;;;;;10.95;6.13;;;0.80;99.90;;;;;;4953483;28;20046;-73
2021/01/15 12:03:24;;;;;;;9.85;5.40;;;0.90;99.90;;;;;;4951979;28;20039;-73
2021/01/15 12:05:51;;;;;;;10.10;6.28;;;0.90;99.90;;;;;;4952128;28;20812;-74
2021/01/15 12:08:21;;;;;;;25.63;15.52;;;0.90;99.90;;;;;;4968466;28;20575;-73
2021/01/15 12:10:57;;;;;;;13.63;8.07;;;0.90;99.90;;;;;;4940847;28;20099;-74
2021/01/15 12:13:24;;;;;;;10.68;5.82;;;0.90;99.90;;;;;;4950905;28;20089;-74
2021/01/15 12:15:51;;;;;;;17.58;10.13;;;0.90;99.90;;;;;;4954937;28;20046;-74
2021/01/15 12:18:17;;;;;;;11.35;6.20;;;0.80;99.90;;;;;;4955386;28;20027;-74
2021/01/15 12:20:43;;;;;;;13.35;6.95;;;0.90;99.90;;;;;;4963705;28;20066;-74
2021/01/15 12:23:08;;;;;;;13.75;6.75;;;1.00;99.90;;;;;;4950265;28;20121;-74
2021/01/15 12:25:41;;;;;;;15.93;8.88;;;1.00;99.90;;;;;;4948365;28;20506;-74
2021/01/15 12:28:08;;;;;;;22.02;15.13;;;0.90;99.90;;;;;;4935784;28;20046;-74
2021/01/15 12:30:34;;;;;;;29.25;17.00;;;0.90;99.90;;;;;;4966511;28;20035;-74
2021/01/15 12:33:14;;;;;;;14.20;8.45;;;0.80;99.90;;;;;;4960130;28;20031;-74
2021/01/15 12:35:44;;;;;;;11.85;5.75;;;0.80;99.90;;;;;;4952042;28;20053;-74
2021/01/15 12:38:27;;;;;;;16.33;9.52;;;0.80;99.90;;;;;;4959017;28;20109;-74
2021/01/15 12:40:53;;;;;;;11.60;7.18;;;0.80;99.90;;;;;;4966014;28;20074;-74
2021/01/15 12:43:20;;;;;;;24.98;12.32;;;0.80;99.90;;;;;;4954060;28;20058;-74
2021/01/15 12:45:48;;;;;;;13.70;7.90;;;0.70;99.90;;;;;;4958874;28;20035;-75
2021/01/15 12:48:16;;;;;;;9.98;5.57;;;0.60;99.90;;;;;;4956176;28;20143;-74
2021/01/15 12:50:43;;;;;;;19.70;10.95;;;0.60;99.90;;;;;;4955195;28;20039;-75
2021/01/15 12:53:08;;;;;;;12.82;7.72;;;0.70;99.90;;;;;;4954785;28;20121;-74
2021/01/15 12:55:34;;;;;;;11.00;6.75;;;0.60;99.90;;;;;;4954418;28;20033;-74